April Moran — WDJ2163 — position and weather

sailwx.info

Track history (hours):
 
Tides and Currents Weather Stations Pressure Air Temp Water Temp Dewpoint Dewpoint Depression Visibility Wind Speed Wind Dir Waves Ship Positions

April Moran

Owner: Moran Towing Corporation, New Canaan, CT. More information available from US FCC via Universal Licensing System and Coast Guard Vessel Documentation Center.

Last reported at 2018-Jan-24 03:09 UTC. Time now 2018-Jan-24 03:57 UTC.
Position N 39°14' W 076°32'.

Length 29 m; draft 3.9 m.

Type: Tug. MMSI: 367139510.

Date/timePositionNaut miles runAvg speedWind from/ knotsBaromVisibWave heightAir tempDewpointWater temp
2018-Jan-24 03:09N 39°14' W 076°32'0 0.1
2018-Jan-24 02:57N 39°14' W 076°32'1 2.0
2018-Jan-24 02:30N 39°15' W 076°32'2 3.3
2018-Jan-24 02:00N 39°16' W 076°34'0 0.0
2018-Jan-24 01:30N 39°16' W 076°34'0 0.0
2018-Jan-24 01:00N 39°16' W 076°34'0 0.0
2018-Jan-24 00:30N 39°16' W 076°34'0 0.0
2018-Jan-24 00:01N 39°16' W 076°34'0 0.0
2018-Jan-23 23:30N 39°16' W 076°34'0 0.0
2018-Jan-23 23:00N 39°16' W 076°34'0 0.0
2018-Jan-23 22:30N 39°16' W 076°34'0 0.0
2018-Jan-23 22:00N 39°16' W 076°34'0 0.0
2018-Jan-23 21:30N 39°16' W 076°34'0 0.0
2018-Jan-23 21:00N 39°16' W 076°34'0 0.0
2018-Jan-23 20:30N 39°16' W 076°34'0 0.0
2018-Jan-23 20:00N 39°16' W 076°34'0 0.0
2018-Jan-23 19:30N 39°16' W 076°34'0 0.0
2018-Jan-23 19:00N 39°16' W 076°34'0 0.0
2018-Jan-23 18:29N 39°16' W 076°34'1 1.9
2018-Jan-23 18:00N 39°16' W 076°35'0 0.1
2018-Jan-23 17:30N 39°16' W 076°35'0 0.0
2018-Jan-23 17:00N 39°16' W 076°35'0 0.0
2018-Jan-23 16:30N 39°16' W 076°35'0 0.1
2018-Jan-23 16:00N 39°16' W 076°35'1 1.1
2018-Jan-23 15:30N 39°16' W 076°35'1 2.3
2018-Jan-23 15:00N 39°15' W 076°34'1 2.1
2018-Jan-23 14:30N 39°14' W 076°33'2 3.7
2018-Jan-23 14:00N 39°16' W 076°34'0 0.0
2018-Jan-23 13:30N 39°16' W 076°34'0 0.0
2018-Jan-23 13:00N 39°16' W 076°34'0 0.0
2018-Jan-23 12:30N 39°16' W 076°34'0 0.0
2018-Jan-23 12:00N 39°16' W 076°34'0 0.0
2018-Jan-23 11:30N 39°16' W 076°34'0 0.0
2018-Jan-23 11:00N 39°16' W 076°34'0 0.0
2018-Jan-23 10:30N 39°16' W 076°34'0 0.0
2018-Jan-23 10:00N 39°16' W 076°34'0 0.0
2018-Jan-23 09:30N 39°16' W 076°34'2 4.2
2018-Jan-23 09:00N 39°14' W 076°33'1 1.5
2018-Jan-23 08:30N 39°15' W 076°33'0 0.3
2018-Jan-23 08:00N 39°15' W 076°32'0 0.9
2018-Jan-23 07:30N 39°15' W 076°33'0 0.2
2018-Jan-23 07:00N 39°15' W 076°33'1 2.5
2018-Jan-23 06:30N 39°15' W 076°35'1 1.9
2018-Jan-23 06:00N 39°14' W 076°34'0 0.2
2018-Jan-23 05:28N 39°14' W 076°34'0 0.0
2018-Jan-23 04:24N 39°14' W 076°34'0 0.7
2018-Jan-23 04:00N 39°15' W 076°34'1 1.7
2018-Jan-23 03:28N 39°15' W 076°33'2 3.0
2018-Jan-23 02:50N 39°13' W 076°32'0 0.6
2018-Jan-23 02:30N 39°14' W 076°32'1 2.2
2018-Jan-23 02:00N 39°15' W 076°32'1 1.2
2018-Jan-23 01:30N 39°15' W 076°33'1 3.0
2018-Jan-23 01:00N 39°16' W 076°34'0 0.0
2018-Jan-23 00:30N 39°16' W 076°34'0 0.0
2018-Jan-23 00:00N 39°16' W 076°34'0 0.0
2018-Jan-22 23:30N 39°16' W 076°34'0 0.0
2018-Jan-22 23:00N 39°16' W 076°34'1 1.5
2018-Jan-22 22:06N 39°15' W 076°34'0 0.3
2018-Jan-22 22:00N 39°15' W 076°34'1 1.1
2018-Jan-22 21:31N 39°15' W 076°33'2 3.0
2018-Jan-22 21:00N 39°13' W 076°32'3 5.5
2018-Jan-22 20:30N 39°16' W 076°34'0 0.7
2018-Jan-22 20:00N 39°16' W 076°34'0 0.0
2018-Jan-22 19:30N 39°16' W 076°34'0 0.0
2018-Jan-22 19:01N 39°16' W 076°34'0 0.0
2018-Jan-22 18:31N 39°16' W 076°34'0 0.0
2018-Jan-22 18:00N 39°16' W 076°34'0 0.0
2018-Jan-22 17:31N 39°16' W 076°34'1 0.8
2018-Jan-22 16:31N 39°16' W 076°33'0 1.5
2018-Jan-22 16:29N 39°15' W 076°33'1 2.0
2018-Jan-22 16:00N 39°15' W 076°32'1 1.5
2018-Jan-22 15:29N 39°15' W 076°33'1 2.7
2018-Jan-22 15:00N 39°16' W 076°34'0 0.0
2018-Jan-22 14:31N 39°16' W 076°34'0 0.0
2018-Jan-22 14:01N 39°16' W 076°34'0 0.0
2018-Jan-22 13:30N 39°16' W 076°34'0 0.0
2018-Jan-22 13:00N 39°16' W 076°34'0 0.0
2018-Jan-22 12:31N 39°16' W 076°34'0 0.0
2018-Jan-22 12:01N 39°16' W 076°34'0 0.0
2018-Jan-22 11:31N 39°16' W 076°34'0 0.0
2018-Jan-22 11:01N 39°16' W 076°34'0 0.0
2018-Jan-22 10:30N 39°16' W 076°34'0 0.0
2018-Jan-22 10:01N 39°16' W 076°34'0 0.0
2018-Jan-22 09:29N 39°16' W 076°34'0 0.0
2018-Jan-22 09:00N 39°16' W 076°34'0 0.0
2018-Jan-22 08:30N 39°16' W 076°34'0 0.0
2018-Jan-22 08:01N 39°16' W 076°34'0 0.0
2018-Jan-22 07:30N 39°16' W 076°34'1 2.3
2018-Jan-22 07:01N 39°15' W 076°33'1 1.8
2018-Jan-22 06:30N 39°15' W 076°32'0 1.0
2018-Jan-22 06:00N 39°14' W 076°33'1 2.0
2018-Jan-22 05:30N 39°13' W 076°32'0 1.0
2018-Jan-22 05:00N 39°14' W 076°32'1 1.7
2018-Jan-22 04:30N 39°14' W 076°32'1 1.5
2018-Jan-22 04:00N 39°15' W 076°32'0 0.0
2018-Jan-22 03:31N 39°15' W 076°32'0 0.0
2018-Jan-22 03:01N 39°15' W 076°32'0 0.0
2018-Jan-22 02:28N 39°15' W 076°32'3 4.7
2018-Jan-22 01:55N 39°13' W 076°35'0 0.1
2018-Jan-22 01:25N 39°13' W 076°35'0 0.7
2018-Jan-22 01:01N 39°13' W 076°34'2 3.5
2018-Jan-22 00:28N 39°13' W 076°32'3 7.5
2018-Jan-22 00:00N 39°16' W 076°34'0 0.2
2018-Jan-21 23:31N 39°16' W 076°34'0 0.0
2018-Jan-21 23:01N 39°16' W 076°34'0 0.0
2018-Jan-21 22:31N 39°16' W 076°34'0 0.0
2018-Jan-21 22:00N 39°16' W 076°34'0 0.0
2018-Jan-21 21:31N 39°16' W 076°34'0 0.0
2018-Jan-21 21:01N 39°16' W 076°34'0 0.0
2018-Jan-21 20:31N 39°16' W 076°34'0 0.0
2018-Jan-21 20:01N 39°16' W 076°34'0 0.0
2018-Jan-21 19:30N 39°16' W 076°34'0 0.0
2018-Jan-21 19:01N 39°16' W 076°34'0 0.0
2018-Jan-21 18:30N 39°16' W 076°34'0 0.0
2018-Jan-21 18:00N 39°16' W 076°34'0 0.0
2018-Jan-21 17:30N 39°16' W 076°34'0 0.0
2018-Jan-21 17:00N 39°16' W 076°34'0 0.4
2018-Jan-21 16:30N 39°16' W 076°34'2 3.2
2018-Jan-21 16:00N 39°15' W 076°33'1 2.4
2018-Jan-21 15:27N 39°14' W 076°32'0 0.9
2018-Jan-21 15:00N 39°13' W 076°32'3 6.0
2018-Jan-21 14:31N 39°16' W 076°34'0 0.1
2018-Jan-21 14:00N 39°16' W 076°34'0 0.0
2018-Jan-21 13:30N 39°16' W 076°34'0 0.0
2018-Jan-21 13:00N 39°16' W 076°34'0 0.0
2018-Jan-21 12:30N 39°16' W 076°34'0 0.0
2018-Jan-21 12:00N 39°16' W 076°34'0 0.0
2018-Jan-21 11:30N 39°16' W 076°34'0 0.0
2018-Jan-21 11:00N 39°16' W 076°34'0 0.0
2018-Jan-21 10:30N 39°16' W 076°34'1 2.2
2018-Jan-21 10:00N 39°15' W 076°33'0 0.1
2018-Jan-21 09:29N 39°15' W 076°33'1 2.5
2018-Jan-21 09:01N 39°14' W 076°33'1 0.5
2018-Jan-21 06:14N 39°13' W 076°32'2 7.3
2018-Jan-21 06:00N 39°14' W 076°33'1 2.8
2018-Jan-21 05:30N 39°15' W 076°35'2 3.3
2018-Jan-21 04:59N 39°15' W 076°33'0 0.7
2018-Jan-21 04:30N 39°15' W 076°32'2 4.7
2018-Jan-21 04:00N 39°16' W 076°35'1 1.2
2018-Jan-21 03:30N 39°16' W 076°35'0 0.0
2018-Jan-21 03:00N 39°16' W 076°35'0 0.0
2018-Jan-21 02:30N 39°16' W 076°35'0 0.0
2018-Jan-21 02:01N 39°16' W 076°35'3 5.3
2018-Jan-21 01:29N 39°14' W 076°33'1 1.1
2018-Jan-21 00:59N 39°15' W 076°32'0 0.0
2018-Jan-21 00:25N 39°15' W 076°32'0 0.5
2018-Jan-21 00:00N 39°15' W 076°32'0 0.0
2018-Jan-20 23:31N 39°15' W 076°32'0 0.0
2018-Jan-20 23:00N 39°15' W 076°32'0 0.0
2018-Jan-20 22:30N 39°15' W 076°32'2 3.8
2018-Jan-20 22:00N 39°15' W 076°35'0 0.0
2018-Jan-20 21:30N 39°15' W 076°35'1 2.0
2018-Jan-20 21:00N 39°16' W 076°34'0 0.0
2018-Jan-20 20:30N 39°16' W 076°34'0 0.0
2018-Jan-20 20:00N 39°16' W 076°34'0 0.0
2018-Jan-20 19:30N 39°16' W 076°34'1 1.7
2018-Jan-20 19:00N 39°15' W 076°34'1 1.8
2018-Jan-20 18:27N 39°14' W 076°33'3 5.8
2018-Jan-20 18:01N 39°16' W 076°35'0 0.6
2018-Jan-20 17:30N 39°16' W 076°35'0 0.0
2018-Jan-20 17:00N 39°16' W 076°35'0 0.0
2018-Jan-20 16:30N 39°16' W 076°35'0 0.3
2018-Jan-20 16:00N 39°16' W 076°35'1 1.3
2018-Jan-20 15:26N 39°16' W 076°34'0 0.0
2018-Jan-20 15:00N 39°16' W 076°34'0 0.0
2018-Jan-20 14:30N 39°16' W 076°34'0 0.0
2018-Jan-20 13:59N 39°16' W 076°34'0 0.0
2018-Jan-20 13:23N 39°16' W 076°34'0 0.0
2018-Jan-20 12:45N 39°16' W 076°34'0 0.0
2018-Jan-20 12:28N 39°16' W 076°34'0 0.0
2018-Jan-20 12:00N 39°16' W 076°34'0 0.0
2018-Jan-20 11:29N 39°16' W 076°34'0 0.0
2018-Jan-20 10:57N 39°16' W 076°34'0 0.0
2018-Jan-20 10:28N 39°16' W 076°34'0 0.4
2018-Jan-20 10:00N 39°16' W 076°34'2 3.8
2018-Jan-20 09:30N 39°15' W 076°32'2 3.2
2018-Jan-20 08:59N 39°13' W 076°32'1 2.2
2018-Jan-20 08:24N 39°14' W 076°33'2 4.8
2018-Jan-20 07:59N 39°16' W 076°34'0 0.0
2018-Jan-20 07:29N 39°16' W 076°34'0 0.0
2018-Jan-20 06:59N 39°16' W 076°34'0 0.0
2018-Jan-20 06:30N 39°16' W 076°34'0 0.0
2018-Jan-20 06:00N 39°16' W 076°34'0 0.0
2018-Jan-20 05:30N 39°16' W 076°34'0 0.0
2018-Jan-20 05:00N 39°16' W 076°34'0 0.0
2018-Jan-20 04:30N 39°16' W 076°34'0 0.0
2018-Jan-20 04:00N 39°16' W 076°34'0 0.5
2018-Jan-20 03:30N 39°16' W 076°34'0 1.0
2018-Jan-20 03:00N 39°15' W 076°34'2 4.1
2018-Jan-20 02:30N 39°14' W 076°32'1 1.6
2018-Jan-20 02:00N 39°14' W 076°32'0 0.0
2018-Jan-20 01:30N 39°14' W 076°32'0 0.0
2018-Jan-20 01:00N 39°14' W 076°32'0 0.0
2018-Jan-20 00:30N 39°14' W 076°32'0 0.0
2018-Jan-20 00:00N 39°14' W 076°32'0 0.4
2018-Jan-19 23:30N 39°14' W 076°32'1 1.5
2018-Jan-19 23:00N 39°14' W 076°32'0 0.6
2018-Jan-19 22:30N 39°14' W 076°32'3 5.4
2018-Jan-19 22:00N 39°16' W 076°34'0 0.0
2018-Jan-19 21:30N 39°16' W 076°34'0 0.0
2018-Jan-19 21:00N 39°16' W 076°34'1 1.9
2018-Jan-19 20:30N 39°15' W 076°34'2 1.6
2018-Jan-19 19:03N 39°13' W 076°32'0 2.8
2018-Jan-19 19:00N 39°13' W 076°32'1 1.3
2018-Jan-19 18:30N 39°13' W 076°32'3 4.9
2018-Jan-19 17:59N 39°15' W 076°34'0 0.8
2018-Jan-19 17:29N 39°16' W 076°34'0 0.2
2018-Jan-19 16:54N 39°15' W 076°34'2 5.4
2018-Jan-19 16:30N 39°13' W 076°33'1 1.5
2018-Jan-19 15:49N 39°13' W 076°35'2 5.0
2018-Jan-19 15:29N 39°14' W 076°33'2 3.9
2018-Jan-19 15:00N 39°16' W 076°34'0 0.0
2018-Jan-19 14:30N 39°16' W 076°34'0 0.0
2018-Jan-19 14:00N 39°16' W 076°34'0 0.0
2018-Jan-19 13:30N 39°16' W 076°34'0 0.0
2018-Jan-19 13:01N 39°16' W 076°34'0 0.0
2018-Jan-19 12:30N 39°16' W 076°34'0 0.0
2018-Jan-19 12:00N 39°16' W 076°34'0 0.0
2018-Jan-19 11:30N 39°16' W 076°34'1 3.0
2018-Jan-19 11:00N 39°15' W 076°33'0 0.1
2018-Jan-19 10:30N 39°15' W 076°33'2 4.2
2018-Jan-19 10:00N 39°13' W 076°32'0 0.9
2018-Jan-19 09:30N 39°13' W 076°32'0 0.0
2018-Jan-19 09:00N 39°13' W 076°32'0 0.0
2018-Jan-19 08:27N 39°13' W 076°32'0 0.0
2018-Jan-19 08:00N 39°13' W 076°32'0 0.0
2018-Jan-19 07:30N 39°13' W 076°32'0 0.0
2018-Jan-19 06:59N 39°13' W 076°32'0 0.0
2018-Jan-19 06:29N 39°13' W 076°32'0 0.0
2018-Jan-19 06:00N 39°13' W 076°32'0 0.0
2018-Jan-19 05:28N 39°13' W 076°32'2 4.5
2018-Jan-19 05:00N 39°15' W 076°34'0 0.1
2018-Jan-19 03:46N 39°14' W 076°34'1 4.3
2018-Jan-19 03:30N 39°15' W 076°33'1 1.5
2018-Jan-19 03:00N 39°15' W 076°32'2 3.4
2018-Jan-19 02:30N 39°16' W 076°34'0 0.1
2018-Jan-19 02:00N 39°16' W 076°34'0 0.0
2018-Jan-19 01:30N 39°16' W 076°34'0 0.0
2018-Jan-19 01:00N 39°16' W 076°34'0 0.0
2018-Jan-19 00:30N 39°16' W 076°34'2 3.6
2018-Jan-19 00:01N 39°15' W 076°32'1 1.3
2018-Jan-18 23:30N 39°14' W 076°33'1 1.9
2018-Jan-18 23:00N 39°15' W 076°31'2 4.5
2018-Jan-18 22:30N 39°15' W 076°34'1 1.1
2018-Jan-18 22:00N 39°16' W 076°34'0 0.0
2018-Jan-18 21:30N 39°16' W 076°34'0 0.0
2018-Jan-18 21:00N 39°16' W 076°34'0 0.0
2018-Jan-18 20:30N 39°16' W 076°34'0 0.0
2018-Jan-18 20:00N 39°16' W 076°34'0 0.0
2018-Jan-18 19:30N 39°16' W 076°34'0 0.0
2018-Jan-18 19:00N 39°16' W 076°34'0 0.0
2018-Jan-18 18:30N 39°16' W 076°34'0 0.0
2018-Jan-18 18:00N 39°16' W 076°34'0 0.0
2018-Jan-18 17:30N 39°16' W 076°34'0 0.0
2018-Jan-18 17:00N 39°16' W 076°34'0 0.0
2018-Jan-18 16:30N 39°16' W 076°34'0 0.0
2018-Jan-18 16:01N 39°16' W 076°34'0 0.0
2018-Jan-18 15:30N 39°16' W 076°34'0 0.0
2018-Jan-18 15:00N 39°16' W 076°34'0 0.0
2018-Jan-18 14:30N 39°16' W 076°34'0 0.0
2018-Jan-18 14:01N 39°16' W 076°34'0 0.0
2018-Jan-18 13:30N 39°16' W 076°34'0 0.0
2018-Jan-18 13:00N 39°16' W 076°34'0 0.0
2018-Jan-18 12:30N 39°16' W 076°34'3 5.2
2018-Jan-18 12:00N 39°13' W 076°34'0 0.1
2018-Jan-18 11:08N 39°13' W 076°34'1 5.1
2018-Jan-18 10:51N 39°13' W 076°32'2 4.9
2018-Jan-18 10:27N 39°15' W 076°33'0 0.6
2018-Jan-18 09:57N 39°15' W 076°33'0 1.0
2018-Jan-18 09:30N 39°15' W 076°33'1 1.1
2018-Jan-18 09:01N 39°15' W 076°33'0 0.1
2018-Jan-18 08:30N 39°15' W 076°33'0 0.0
2018-Jan-18 08:00N 39°15' W 076°33'0 1.0
2018-Jan-18 07:30N 39°15' W 076°33'0 0.4
2018-Jan-18 07:00N 39°15' W 076°33'1 2.4
2018-Jan-18 06:30N 39°14' W 076°33'1 1.7
2018-Jan-18 06:00N 39°15' W 076°32'0 0.3
2018-Jan-18 05:30N 39°15' W 076°33'1 2.3
2018-Jan-18 05:00N 39°15' W 076°34'2 3.5
2018-Jan-18 04:30N 39°14' W 076°33'1 1.1
2018-Jan-18 04:00N 39°14' W 076°33'2 3.6
2018-Jan-18 03:31N 39°16' W 076°34'0 0.0
2018-Jan-18 03:00N 39°16' W 076°34'0 0.0
2018-Jan-18 02:30N 39°16' W 076°34'0 0.0
2018-Jan-18 02:00N 39°16' W 076°34'0 0.0
2018-Jan-18 01:30N 39°16' W 076°34'0 0.0
2018-Jan-18 01:00N 39°16' W 076°34'0 0.0
2018-Jan-18 00:00N 39°16' W 076°34'0 0.0
2018-Jan-17 23:57N 39°16' W 076°34'  
Track history (hours):
 
Tides and Currents Weather Stations Pressure Air Temp Water Temp Dewpoint Dewpoint Depression Visibility Wind Speed Wind Dir Waves Ship Positions

April Moran

Owner: Moran Towing Corporation, New Canaan, CT. More information available from US FCC via Universal Licensing System and Coast Guard Vessel Documentation Center.

Last reported at 2018-Jan-24 03:09 UTC. Time now 2018-Jan-24 03:57 UTC.
Position N 39°14' W 076°32'.

Length 29 m; draft 3.9 m.

Type: Tug. MMSI: 367139510.

Date/timePositionNaut miles runAvg speedWind from/ knotsBaromVisibWave heightAir tempDewpointWater temp
2018-Jan-24 03:09N 39°14' W 076°32'0 0.1
2018-Jan-24 02:57N 39°14' W 076°32'1 2.0
2018-Jan-24 02:30N 39°15' W 076°32'2 3.3
2018-Jan-24 02:00N 39°16' W 076°34'0 0.0
2018-Jan-24 01:30N 39°16' W 076°34'0 0.0
2018-Jan-24 01:00N 39°16' W 076°34'0 0.0
2018-Jan-24 00:30N 39°16' W 076°34'0 0.0
2018-Jan-24 00:01N 39°16' W 076°34'0 0.0
2018-Jan-23 23:30N 39°16' W 076°34'0 0.0
2018-Jan-23 23:00N 39°16' W 076°34'0 0.0
2018-Jan-23 22:30N 39°16' W 076°34'0 0.0
2018-Jan-23 22:00N 39°16' W 076°34'0 0.0
2018-Jan-23 21:30N 39°16' W 076°34'0 0.0
2018-Jan-23 21:00N 39°16' W 076°34'0 0.0
2018-Jan-23 20:30N 39°16' W 076°34'0 0.0
2018-Jan-23 20:00N 39°16' W 076°34'0 0.0
2018-Jan-23 19:30N 39°16' W 076°34'0 0.0
2018-Jan-23 19:00N 39°16' W 076°34'0 0.0
2018-Jan-23 18:29N 39°16' W 076°34'1 1.9
2018-Jan-23 18:00N 39°16' W 076°35'0 0.1
2018-Jan-23 17:30N 39°16' W 076°35'0 0.0
2018-Jan-23 17:00N 39°16' W 076°35'0 0.0
2018-Jan-23 16:30N 39°16' W 076°35'0 0.1
2018-Jan-23 16:00N 39°16' W 076°35'1 1.1
2018-Jan-23 15:30N 39°16' W 076°35'1 2.3
2018-Jan-23 15:00N 39°15' W 076°34'1 2.1
2018-Jan-23 14:30N 39°14' W 076°33'2 3.7
2018-Jan-23 14:00N 39°16' W 076°34'0 0.0
2018-Jan-23 13:30N 39°16' W 076°34'0 0.0
2018-Jan-23 13:00N 39°16' W 076°34'0 0.0
2018-Jan-23 12:30N 39°16' W 076°34'0 0.0
2018-Jan-23 12:00N 39°16' W 076°34'0 0.0
2018-Jan-23 11:30N 39°16' W 076°34'0 0.0
2018-Jan-23 11:00N 39°16' W 076°34'0 0.0
2018-Jan-23 10:30N 39°16' W 076°34'0 0.0
2018-Jan-23 10:00N 39°16' W 076°34'0 0.0
2018-Jan-23 09:30N 39°16' W 076°34'2 4.2
2018-Jan-23 09:00N 39°14' W 076°33'1 1.5
2018-Jan-23 08:30N 39°15' W 076°33'0 0.3
2018-Jan-23 08:00N 39°15' W 076°32'0 0.9
2018-Jan-23 07:30N 39°15' W 076°33'0 0.2
2018-Jan-23 07:00N 39°15' W 076°33'1 2.5
2018-Jan-23 06:30N 39°15' W 076°35'1 1.9
2018-Jan-23 06:00N 39°14' W 076°34'0 0.2
2018-Jan-23 05:28N 39°14' W 076°34'0 0.0
2018-Jan-23 04:24N 39°14' W 076°34'0 0.7
2018-Jan-23 04:00N 39°15' W 076°34'1 1.7
2018-Jan-23 03:28N 39°15' W 076°33'2 3.0
2018-Jan-23 02:50N 39°13' W 076°32'0 0.6
2018-Jan-23 02:30N 39°14' W 076°32'1 2.2
2018-Jan-23 02:00N 39°15' W 076°32'1 1.2
2018-Jan-23 01:30N 39°15' W 076°33'1 3.0
2018-Jan-23 01:00N 39°16' W 076°34'0 0.0
2018-Jan-23 00:30N 39°16' W 076°34'0 0.0
2018-Jan-23 00:00N 39°16' W 076°34'0 0.0
2018-Jan-22 23:30N 39°16' W 076°34'0 0.0
2018-Jan-22 23:00N 39°16' W 076°34'1 1.5
2018-Jan-22 22:06N 39°15' W 076°34'0 0.3
2018-Jan-22 22:00N 39°15' W 076°34'1 1.1
2018-Jan-22 21:31N 39°15' W 076°33'2 3.0
2018-Jan-22 21:00N 39°13' W 076°32'3 5.5
2018-Jan-22 20:30N 39°16' W 076°34'0 0.7
2018-Jan-22 20:00N 39°16' W 076°34'0 0.0
2018-Jan-22 19:30N 39°16' W 076°34'0 0.0
2018-Jan-22 19:01N 39°16' W 076°34'0 0.0
2018-Jan-22 18:31N 39°16' W 076°34'0 0.0
2018-Jan-22 18:00N 39°16' W 076°34'0 0.0
2018-Jan-22 17:31N 39°16' W 076°34'1 0.8
2018-Jan-22 16:31N 39°16' W 076°33'0 1.5
2018-Jan-22 16:29N 39°15' W 076°33'1 2.0
2018-Jan-22 16:00N 39°15' W 076°32'1 1.5
2018-Jan-22 15:29N 39°15' W 076°33'1 2.7
2018-Jan-22 15:00N 39°16' W 076°34'0 0.0
2018-Jan-22 14:31N 39°16' W 076°34'0 0.0
2018-Jan-22 14:01N 39°16' W 076°34'0 0.0
2018-Jan-22 13:30N 39°16' W 076°34'0 0.0
2018-Jan-22 13:00N 39°16' W 076°34'0 0.0
2018-Jan-22 12:31N 39°16' W 076°34'0 0.0
2018-Jan-22 12:01N 39°16' W 076°34'0 0.0
2018-Jan-22 11:31N 39°16' W 076°34'0 0.0
2018-Jan-22 11:01N 39°16' W 076°34'0 0.0
2018-Jan-22 10:30N 39°16' W 076°34'0 0.0
2018-Jan-22 10:01N 39°16' W 076°34'0 0.0
2018-Jan-22 09:29N 39°16' W 076°34'0 0.0
2018-Jan-22 09:00N 39°16' W 076°34'0 0.0
2018-Jan-22 08:30N 39°16' W 076°34'0 0.0
2018-Jan-22 08:01N 39°16' W 076°34'0 0.0
2018-Jan-22 07:30N 39°16' W 076°34'1 2.3
2018-Jan-22 07:01N 39°15' W 076°33'1 1.8
2018-Jan-22 06:30N 39°15' W 076°32'0 1.0
2018-Jan-22 06:00N 39°14' W 076°33'1 2.0
2018-Jan-22 05:30N 39°13' W 076°32'0 1.0
2018-Jan-22 05:00N 39°14' W 076°32'1 1.7
2018-Jan-22 04:30N 39°14' W 076°32'1 1.5
2018-Jan-22 04:00N 39°15' W 076°32'0 0.0
2018-Jan-22 03:31N 39°15' W 076°32'0 0.0
2018-Jan-22 03:01N 39°15' W 076°32'0 0.0
2018-Jan-22 02:28N 39°15' W 076°32'3 4.7
2018-Jan-22 01:55N 39°13' W 076°35'0 0.1
2018-Jan-22 01:25N 39°13' W 076°35'0 0.7
2018-Jan-22 01:01N 39°13' W 076°34'2 3.5
2018-Jan-22 00:28N 39°13' W 076°32'3 7.5
2018-Jan-22 00:00N 39°16' W 076°34'0 0.2
2018-Jan-21 23:31N 39°16' W 076°34'0 0.0
2018-Jan-21 23:01N 39°16' W 076°34'0 0.0
2018-Jan-21 22:31N 39°16' W 076°34'0 0.0
2018-Jan-21 22:00N 39°16' W 076°34'0 0.0
2018-Jan-21 21:31N 39°16' W 076°34'0 0.0
2018-Jan-21 21:01N 39°16' W 076°34'0 0.0
2018-Jan-21 20:31N 39°16' W 076°34'0 0.0
2018-Jan-21 20:01N 39°16' W 076°34'0 0.0
2018-Jan-21 19:30N 39°16' W 076°34'0 0.0
2018-Jan-21 19:01N 39°16' W 076°34'0 0.0
2018-Jan-21 18:30N 39°16' W 076°34'0 0.0
2018-Jan-21 18:00N 39°16' W 076°34'0 0.0
2018-Jan-21 17:30N 39°16' W 076°34'0 0.0
2018-Jan-21 17:00N 39°16' W 076°34'0 0.4
2018-Jan-21 16:30N 39°16' W 076°34'2 3.2
2018-Jan-21 16:00N 39°15' W 076°33'1 2.4
2018-Jan-21 15:27N 39°14' W 076°32'0 0.9
2018-Jan-21 15:00N 39°13' W 076°32'3 6.0
2018-Jan-21 14:31N 39°16' W 076°34'0 0.1
2018-Jan-21 14:00N 39°16' W 076°34'0 0.0
2018-Jan-21 13:30N 39°16' W 076°34'0 0.0
2018-Jan-21 13:00N 39°16' W 076°34'0 0.0
2018-Jan-21 12:30N 39°16' W 076°34'0 0.0
2018-Jan-21 12:00N 39°16' W 076°34'0 0.0
2018-Jan-21 11:30N 39°16' W 076°34'0 0.0
2018-Jan-21 11:00N 39°16' W 076°34'0 0.0
2018-Jan-21 10:30N 39°16' W 076°34'1 2.2
2018-Jan-21 10:00N 39°15' W 076°33'0 0.1
2018-Jan-21 09:29N 39°15' W 076°33'1 2.5
2018-Jan-21 09:01N 39°14' W 076°33'1 0.5
2018-Jan-21 06:14N 39°13' W 076°32'2 7.3
2018-Jan-21 06:00N 39°14' W 076°33'1 2.8
2018-Jan-21 05:30N 39°15' W 076°35'2 3.3
2018-Jan-21 04:59N 39°15' W 076°33'0 0.7
2018-Jan-21 04:30N 39°15' W 076°32'2 4.7
2018-Jan-21 04:00N 39°16' W 076°35'1 1.2
2018-Jan-21 03:30N 39°16' W 076°35'0 0.0
2018-Jan-21 03:00N 39°16' W 076°35'0 0.0
2018-Jan-21 02:30N 39°16' W 076°35'0 0.0
2018-Jan-21 02:01N 39°16' W 076°35'3 5.3
2018-Jan-21 01:29N 39°14' W 076°33'1 1.1
2018-Jan-21 00:59N 39°15' W 076°32'0 0.0
2018-Jan-21 00:25N 39°15' W 076°32'0 0.5
2018-Jan-21 00:00N 39°15' W 076°32'0 0.0
2018-Jan-20 23:31N 39°15' W 076°32'0 0.0
2018-Jan-20 23:00N 39°15' W 076°32'0 0.0
2018-Jan-20 22:30N 39°15' W 076°32'2 3.8
2018-Jan-20 22:00N 39°15' W 076°35'0 0.0
2018-Jan-20 21:30N 39°15' W 076°35'1 2.0
2018-Jan-20 21:00N 39°16' W 076°34'0 0.0
2018-Jan-20 20:30N 39°16' W 076°34'0 0.0
2018-Jan-20 20:00N 39°16' W 076°34'0 0.0
2018-Jan-20 19:30N 39°16' W 076°34'1 1.7
2018-Jan-20 19:00N 39°15' W 076°34'1 1.8
2018-Jan-20 18:27N 39°14' W 076°33'3 5.8
2018-Jan-20 18:01N 39°16' W 076°35'0 0.6
2018-Jan-20 17:30N 39°16' W 076°35'0 0.0
2018-Jan-20 17:00N 39°16' W 076°35'0 0.0
2018-Jan-20 16:30N 39°16' W 076°35'0 0.3
2018-Jan-20 16:00N 39°16' W 076°35'1 1.3
2018-Jan-20 15:26N 39°16' W 076°34'0 0.0
2018-Jan-20 15:00N 39°16' W 076°34'0 0.0
2018-Jan-20 14:30N 39°16' W 076°34'0 0.0
2018-Jan-20 13:59N 39°16' W 076°34'0 0.0
2018-Jan-20 13:23N 39°16' W 076°34'0 0.0
2018-Jan-20 12:45N 39°16' W 076°34'0 0.0
2018-Jan-20 12:28N 39°16' W 076°34'0 0.0
2018-Jan-20 12:00N 39°16' W 076°34'0 0.0
2018-Jan-20 11:29N 39°16' W 076°34'0 0.0
2018-Jan-20 10:57N 39°16' W 076°34'0 0.0
2018-Jan-20 10:28N 39°16' W 076°34'0 0.4
2018-Jan-20 10:00N 39°16' W 076°34'2 3.8
2018-Jan-20 09:30N 39°15' W 076°32'2 3.2
2018-Jan-20 08:59N 39°13' W 076°32'1 2.2
2018-Jan-20 08:24N 39°14' W 076°33'2 4.8
2018-Jan-20 07:59N 39°16' W 076°34'0 0.0
2018-Jan-20 07:29N 39°16' W 076°34'0 0.0
2018-Jan-20 06:59N 39°16' W 076°34'0 0.0
2018-Jan-20 06:30N 39°16' W 076°34'0 0.0
2018-Jan-20 06:00N 39°16' W 076°34'0 0.0
2018-Jan-20 05:30N 39°16' W 076°34'0 0.0
2018-Jan-20 05:00N 39°16' W 076°34'0 0.0
2018-Jan-20 04:30N 39°16' W 076°34'0 0.0
2018-Jan-20 04:00N 39°16' W 076°34'0 0.5
2018-Jan-20 03:30N 39°16' W 076°34'0 1.0
2018-Jan-20 03:00N 39°15' W 076°34'2 4.1
2018-Jan-20 02:30N 39°14' W 076°32'1 1.6
2018-Jan-20 02:00N 39°14' W 076°32'0 0.0
2018-Jan-20 01:30N 39°14' W 076°32'0 0.0
2018-Jan-20 01:00N 39°14' W 076°32'0 0.0
2018-Jan-20 00:30N 39°14' W 076°32'0 0.0
2018-Jan-20 00:00N 39°14' W 076°32'0 0.4
2018-Jan-19 23:30N 39°14' W 076°32'1 1.5
2018-Jan-19 23:00N 39°14' W 076°32'0 0.6
2018-Jan-19 22:30N 39°14' W 076°32'3 5.4
2018-Jan-19 22:00N 39°16' W 076°34'0 0.0
2018-Jan-19 21:30N 39°16' W 076°34'0 0.0
2018-Jan-19 21:00N 39°16' W 076°34'1 1.9
2018-Jan-19 20:30N 39°15' W 076°34'2 1.6
2018-Jan-19 19:03N 39°13' W 076°32'0 2.8
2018-Jan-19 19:00N 39°13' W 076°32'1 1.3
2018-Jan-19 18:30N 39°13' W 076°32'3 4.9
2018-Jan-19 17:59N 39°15' W 076°34'0 0.8
2018-Jan-19 17:29N 39°16' W 076°34'0 0.2
2018-Jan-19 16:54N 39°15' W 076°34'2 5.4
2018-Jan-19 16:30N 39°13' W 076°33'1 1.5
2018-Jan-19 15:49N 39°13' W 076°35'2 5.0
2018-Jan-19 15:29N 39°14' W 076°33'2 3.9
2018-Jan-19 15:00N 39°16' W 076°34'0 0.0
2018-Jan-19 14:30N 39°16' W 076°34'0 0.0
2018-Jan-19 14:00N 39°16' W 076°34'0 0.0
2018-Jan-19 13:30N 39°16' W 076°34'0 0.0
2018-Jan-19 13:01N 39°16' W 076°34'0 0.0
2018-Jan-19 12:30N 39°16' W 076°34'0 0.0
2018-Jan-19 12:00N 39°16' W 076°34'0 0.0
2018-Jan-19 11:30N 39°16' W 076°34'1 3.0
2018-Jan-19 11:00N 39°15' W 076°33'0 0.1
2018-Jan-19 10:30N 39°15' W 076°33'2 4.2
2018-Jan-19 10:00N 39°13' W 076°32'0 0.9
2018-Jan-19 09:30N 39°13' W 076°32'0 0.0
2018-Jan-19 09:00N 39°13' W 076°32'0 0.0
2018-Jan-19 08:27N 39°13' W 076°32'0 0.0
2018-Jan-19 08:00N 39°13' W 076°32'0 0.0
2018-Jan-19 07:30N 39°13' W 076°32'0 0.0
2018-Jan-19 06:59N 39°13' W 076°32'0 0.0
2018-Jan-19 06:29N 39°13' W 076°32'0 0.0
2018-Jan-19 06:00N 39°13' W 076°32'0 0.0
2018-Jan-19 05:28N 39°13' W 076°32'2 4.5
2018-Jan-19 05:00N 39°15' W 076°34'0 0.1
2018-Jan-19 03:46N 39°14' W 076°34'1 4.3
2018-Jan-19 03:30N 39°15' W 076°33'1 1.5
2018-Jan-19 03:00N 39°15' W 076°32'2 3.4
2018-Jan-19 02:30N 39°16' W 076°34'0 0.1
2018-Jan-19 02:00N 39°16' W 076°34'0 0.0
2018-Jan-19 01:30N 39°16' W 076°34'0 0.0
2018-Jan-19 01:00N 39°16' W 076°34'0 0.0
2018-Jan-19 00:30N 39°16' W 076°34'2 3.6
2018-Jan-19 00:01N 39°15' W 076°32'1 1.3
2018-Jan-18 23:30N 39°14' W 076°33'1 1.9
2018-Jan-18 23:00N 39°15' W 076°31'2 4.5
2018-Jan-18 22:30N 39°15' W 076°34'1 1.1
2018-Jan-18 22:00N 39°16' W 076°34'0 0.0
2018-Jan-18 21:30N 39°16' W 076°34'0 0.0
2018-Jan-18 21:00N 39°16' W 076°34'0 0.0
2018-Jan-18 20:30N 39°16' W 076°34'0 0.0
2018-Jan-18 20:00N 39°16' W 076°34'0 0.0
2018-Jan-18 19:30N 39°16' W 076°34'0 0.0
2018-Jan-18 19:00N 39°16' W 076°34'0 0.0
2018-Jan-18 18:30N 39°16' W 076°34'0 0.0
2018-Jan-18 18:00N 39°16' W 076°34'0 0.0
2018-Jan-18 17:30N 39°16' W 076°34'0 0.0
2018-Jan-18 17:00N 39°16' W 076°34'0 0.0
2018-Jan-18 16:30N 39°16' W 076°34'0 0.0
2018-Jan-18 16:01N 39°16' W 076°34'0 0.0
2018-Jan-18 15:30N 39°16' W 076°34'0 0.0
2018-Jan-18 15:00N 39°16' W 076°34'0 0.0
2018-Jan-18 14:30N 39°16' W 076°34'0 0.0
2018-Jan-18 14:01N 39°16' W 076°34'0 0.0
2018-Jan-18 13:30N 39°16' W 076°34'0 0.0
2018-Jan-18 13:00N 39°16' W 076°34'0 0.0
2018-Jan-18 12:30N 39°16' W 076°34'3 5.2
2018-Jan-18 12:00N 39°13' W 076°34'0 0.1
2018-Jan-18 11:08N 39°13' W 076°34'1 5.1
2018-Jan-18 10:51N 39°13' W 076°32'2 4.9
2018-Jan-18 10:27N 39°15' W 076°33'0 0.6
2018-Jan-18 09:57N 39°15' W 076°33'0 1.0
2018-Jan-18 09:30N 39°15' W 076°33'1 1.1
2018-Jan-18 09:01N 39°15' W 076°33'0 0.1
2018-Jan-18 08:30N 39°15' W 076°33'0 0.0
2018-Jan-18 08:00N 39°15' W 076°33'0 1.0
2018-Jan-18 07:30N 39°15' W 076°33'0 0.4
2018-Jan-18 07:00N 39°15' W 076°33'1 2.4
2018-Jan-18 06:30N 39°14' W 076°33'1 1.7
2018-Jan-18 06:00N 39°15' W 076°32'0 0.3
2018-Jan-18 05:30N 39°15' W 076°33'1 2.3
2018-Jan-18 05:00N 39°15' W 076°34'2 3.5
2018-Jan-18 04:30N 39°14' W 076°33'1 1.1
2018-Jan-18 04:00N 39°14' W 076°33'2 3.6
2018-Jan-18 03:31N 39°16' W 076°34'0 0.0
2018-Jan-18 03:00N 39°16' W 076°34'0 0.0
2018-Jan-18 02:30N 39°16' W 076°34'0 0.0
2018-Jan-18 02:00N 39°16' W 076°34'0 0.0
2018-Jan-18 01:30N 39°16' W 076°34'0 0.0
2018-Jan-18 01:00N 39°16' W 076°34'0 0.0
2018-Jan-18 00:00N 39°16' W 076°34'0 0.0
2018-Jan-17 23:57N 39°16' W 076°34'  

Dump ship's entire track history